createdAt,value
2018-09-13T00:00:17.745Z,96503.22
2018-09-13T00:02:46.253Z,96501.87
2018-09-13T00:05:14.612Z,96504.22
2018-09-13T00:07:43.842Z,96495.51
2018-09-13T00:10:12.224Z,96491.12
2018-09-13T00:12:40.866Z,96486.84
2018-09-13T00:15:09.233Z,96488.15
2018-09-13T00:17:37.691Z,96481.57
2018-09-13T00:20:06.344Z,96474.69
2018-09-13T00:22:34.662Z,96472.14
2018-09-13T00:25:03.017Z,96469.64
2018-09-13T00:27:31.380Z,96475.97
2018-09-13T00:29:59.711Z,96466.45
2018-09-13T00:32:28.048Z,96469.14
2018-09-13T00:34:56.467Z,96468.97
2018-09-13T00:37:24.795Z,96465.97
2018-09-13T00:39:53.124Z,96465.11
2018-09-13T00:42:21.516Z,96465.11
2018-09-13T00:44:50.218Z,96463.45
2018-09-13T00:47:18.577Z,96463.45
2018-09-13T00:49:47.049Z,96467.19
2018-09-13T00:52:15.492Z,96461.80
2018-09-13T00:54:43.811Z,96461.48
2018-09-13T00:57:12.295Z,96462.24
2018-09-13T00:59:40.673Z,96462.52
2018-09-13T01:02:09.102Z,96461.53
2018-09-13T01:04:37.513Z,96462.06
2018-09-13T01:07:06.193Z,96468.09
2018-09-13T01:09:34.661Z,96468.82
2018-09-13T01:12:03.047Z,96469.35
2018-09-13T01:14:31.599Z,96469.48
2018-09-13T01:16:59.926Z,96463.01
2018-09-13T01:19:28.332Z,96454.09
2018-09-13T01:21:56.743Z,96444.47
2018-09-13T01:24:25.103Z,96449.17
2018-09-13T01:26:53.491Z,96445.28
2018-09-13T01:29:21.820Z,96437.92
2018-09-13T01:31:50.144Z,96432.19
2018-09-13T01:34:18.812Z,96433.61
2018-09-13T01:36:47.149Z,96431.50
2018-09-13T01:39:15.548Z,96428.81
2018-09-13T01:41:44.168Z,96432.31
2018-09-13T01:44:12.548Z,96429.27
2018-09-13T01:46:41.444Z,96426.22
2018-09-13T01:49:09.820Z,96425.05
2018-09-13T01:51:38.132Z,96417.74
2018-09-13T01:54:06.930Z,96423.58
2018-09-13T01:56:35.413Z,96422.67
2018-09-13T01:59:03.952Z,96423.58
2018-09-13T02:01:32.316Z,96429.30
2018-09-13T02:04:00.800Z,96431.27
2018-09-13T02:06:29.187Z,96431.25
2018-09-13T02:08:57.560Z,96421.56
2018-09-13T02:11:25.925Z,96418.09
2018-09-13T02:13:54.337Z,96415.80
2018-09-13T02:16:22.962Z,96412.58
2018-09-13T02:18:51.375Z,96407.98
2018-09-13T02:21:19.767Z,96403.55
2018-09-13T02:23:48.094Z,96395.73
2018-09-13T02:26:16.455Z,96402.98
2018-09-13T02:28:44.844Z,96398.13
2018-09-13T02:31:13.177Z,96404.31
2018-09-13T02:33:41.867Z,96403.17
2018-09-13T02:36:10.305Z,96415.73
2018-09-13T02:38:38.740Z,96415.76
2018-09-13T02:41:07.187Z,96417.71
2018-09-13T02:43:36.527Z,96411.84
2018-09-13T02:46:04.973Z,96408.95
2018-09-13T02:48:33.331Z,96403.91
2018-09-13T02:51:01.787Z,96402.13
2018-09-13T02:53:30.122Z,96406.97
2018-09-13T02:55:59.048Z,96409.38
2018-09-13T02:58:27.811Z,96405.95
2018-09-13T03:00:56.127Z,96400.59
2018-09-13T03:03:24.601Z,96404.35
2018-09-13T03:05:52.918Z,96405.27
2018-09-13T03:08:21.321Z,96413.32
2018-09-13T03:10:49.682Z,96422.28
2018-09-13T03:13:18.132Z,96425.59
2018-09-13T03:15:46.546Z,96429.27
2018-09-13T03:18:15.066Z,96430.98
2018-09-13T03:20:43.556Z,96429.27
2018-09-13T03:23:11.987Z,96434.91
2018-09-13T03:25:40.361Z,96423.89
2018-09-13T03:28:08.770Z,96430.45
2018-09-13T03:30:37.192Z,96433.30
2018-09-13T03:33:05.729Z,96436.11
2018-09-13T03:35:34.062Z,96445.03
2018-09-13T03:38:02.389Z,96473.18
2018-09-13T03:40:30.986Z,96474.20
2018-09-13T03:42:59.548Z,96478.00
2018-09-13T03:45:27.906Z,96473.36
2018-09-13T03:47:56.335Z,96476.38
2018-09-13T03:50:24.695Z,96473.33
2018-09-13T03:52:53.283Z,96476.31
2018-09-13T03:55:21.666Z,96477.94
2018-09-13T03:57:50.013Z,96481.75
2018-09-13T04:00:18.539Z,96484.30
2018-09-13T04:02:47.068Z,96486.60
2018-09-13T04:05:15.443Z,96488.01
2018-09-13T04:07:43.823Z,96490.55
2018-09-13T04:10:12.252Z,96490.95
2018-09-13T04:12:40.677Z,96496.48
2018-09-13T04:15:09.047Z,96503.05
2018-09-13T04:17:37.941Z,96507.73
2018-09-13T04:20:06.318Z,96510.80
2018-09-13T04:22:34.678Z,96511.61
2018-09-13T04:25:03.119Z,96509.98
2018-09-13T04:27:31.569Z,96511.46
2018-09-13T04:30:00.055Z,96515.58
2018-09-13T04:32:28.459Z,96506.84
2018-09-13T04:34:56.783Z,96509.23
2018-09-13T04:37:25.119Z,96510.27
2018-09-13T04:39:53.495Z,96505.15
2018-09-13T04:42:22.020Z,96507.83
2018-09-13T04:44:50.410Z,96505.36
2018-09-13T04:47:18.868Z,96511.48
2018-09-13T04:49:47.317Z,96507.95
2018-09-13T04:52:15.867Z,96507.73
2018-09-13T04:54:44.845Z,96509.08
2018-09-13T04:57:13.197Z,96511.33
2018-09-13T04:59:41.507Z,96505.15
2018-09-13T05:02:09.925Z,96510.88
2018-09-13T05:04:38.291Z,96507.61
2018-09-13T05:07:06.768Z,96514.32
2018-09-13T05:09:35.324Z,96514.83
2018-09-13T05:12:03.723Z,96515.80
2018-09-13T05:14:32.157Z,96517.20
2018-09-13T05:17:00.615Z,96516.17
2018-09-13T05:19:29.147Z,96513.64
2018-09-13T05:21:57.623Z,96511.04
2018-09-13T05:24:26.187Z,96509.00
2018-09-13T05:26:54.601Z,96508.13
2018-09-13T05:29:22.979Z,96504.45
2018-09-13T05:31:51.379Z,96508.04
2018-09-13T05:34:19.692Z,96499.08
2018-09-13T05:36:48.128Z,96495.89
2018-09-13T05:39:16.535Z,96496.40
2018-09-13T05:41:44.993Z,96495.66
2018-09-13T05:44:13.958Z,96501.02
2018-09-13T05:46:42.387Z,96501.48
2018-09-13T05:49:10.828Z,96499.09
2018-09-13T05:51:39.507Z,96502.30
2018-09-13T05:54:07.949Z,96501.48
2018-09-13T05:56:36.364Z,96504.52
2018-09-13T05:59:04.711Z,96506.55
2018-09-13T06:01:33.127Z,96504.75
2018-09-13T06:04:01.449Z,96503.41
2018-09-13T06:06:29.875Z,96500.00
2018-09-13T06:08:58.460Z,96505.13
2018-09-13T06:11:26.856Z,96499.25
2018-09-13T06:13:55.233Z,96498.25
2018-09-13T06:16:23.796Z,96499.97
2018-09-13T06:18:52.120Z,96500.13
2018-09-13T06:21:20.448Z,96491.47
2018-09-13T06:23:48.903Z,96489.50
2018-09-13T06:26:17.312Z,96489.97
2018-09-13T06:28:45.663Z,96486.80
2018-09-13T06:31:14.132Z,96491.27
2018-09-13T06:33:42.476Z,96492.31
2018-09-13T06:36:10.824Z,96497.53
2018-09-13T06:38:39.181Z,96495.34
2018-09-13T06:41:07.582Z,96489.52
2018-09-13T06:43:35.964Z,96486.39
2018-09-13T06:46:04.362Z,96489.22
2018-09-13T06:48:32.871Z,96487.20
2018-09-13T06:51:01.215Z,96488.22
2018-09-13T06:53:29.640Z,96487.23
2018-09-13T06:55:57.989Z,96486.54
2018-09-13T06:58:26.418Z,96483.23
2018-09-13T07:00:54.930Z,96488.44
2018-09-13T07:03:23.310Z,96484.77
2018-09-13T07:05:51.680Z,96487.87
2018-09-13T07:08:20.094Z,96487.92
2018-09-13T07:10:48.500Z,96483.44
2018-09-13T07:13:16.933Z,96486.48
2018-09-13T07:15:45.358Z,96481.43
2018-09-13T07:18:13.916Z,96487.84
2018-09-13T07:20:43.397Z,96484.26
2018-09-13T07:23:11.805Z,96487.08
2018-09-13T07:25:40.368Z,96487.52
2018-09-13T07:28:08.733Z,96492.77
2018-09-13T07:30:37.110Z,96488.89
2018-09-13T07:33:05.503Z,96491.18
2018-09-13T07:35:33.889Z,96491.61
2018-09-13T07:38:02.296Z,96494.28
2018-09-13T07:40:30.713Z,96494.53
2018-09-13T07:42:59.161Z,96498.09
2018-09-13T07:45:27.542Z,96498.89
2018-09-13T07:47:56.116Z,96502.13
2018-09-13T07:50:24.599Z,96500.22
2018-09-13T07:52:53.526Z,96505.26
2018-09-13T07:55:21.958Z,96505.20
2018-09-13T07:57:50.360Z,96505.88
2018-09-13T08:00:18.806Z,96507.86
2018-09-13T08:02:47.247Z,96505.47
2018-09-13T08:05:15.631Z,96507.46
2018-09-13T08:07:44.044Z,96512.11
2018-09-13T08:10:12.400Z,96513.59
2018-09-13T08:12:40.774Z,96512.61
2018-09-13T08:15:09.179Z,96512.41
2018-09-13T08:17:37.617Z,96515.14
2018-09-13T08:20:06.061Z,96517.60
2018-09-13T08:22:34.840Z,96516.02
2018-09-13T08:25:03.271Z,96521.77
2018-09-13T08:27:31.684Z,96511.88
2018-09-13T08:30:00.300Z,96518.48
2018-09-13T08:32:28.677Z,96527.52
2018-09-13T08:34:58.854Z,96518.69
2018-09-13T08:37:27.259Z,96524.48
2018-09-13T08:39:55.792Z,96521.33
2018-09-13T08:42:24.075Z,96513.58
2018-09-13T08:44:52.643Z,96515.25
2018-09-13T08:47:20.966Z,96517.49
2018-09-13T08:49:49.315Z,96517.25
2018-09-13T08:52:17.909Z,96526.49
2018-09-13T08:54:46.343Z,96524.17
2018-09-13T08:57:14.856Z,96528.52
2018-09-13T08:59:43.620Z,96526.67
2018-09-13T09:02:12.088Z,96523.19
2018-09-13T09:04:40.519Z,96523.78
2018-09-13T09:07:08.915Z,96520.61
2018-09-13T09:09:37.377Z,96516.39
2018-09-13T09:12:05.733Z,96513.16
2018-09-13T09:14:34.083Z,96514.12
2018-09-13T09:17:02.494Z,96512.31
2018-09-13T09:19:30.934Z,96511.61
2018-09-13T09:21:59.393Z,96515.77
2018-09-13T09:24:27.873Z,96510.15
2018-09-13T09:26:56.307Z,96505.92
2018-09-13T09:29:24.824Z,96508.14
2018-09-13T09:31:53.171Z,96497.38
2018-09-13T09:34:21.509Z,96496.62
2018-09-13T09:36:49.967Z,96495.09
2018-09-13T09:39:18.372Z,96492.14
2018-09-13T09:41:46.777Z,96490.85
2018-09-13T09:44:15.286Z,96493.36
2018-09-13T09:46:43.554Z,96489.32
2018-09-13T09:49:11.928Z,96489.66
2018-09-13T09:51:40.520Z,96492.97
2018-09-13T09:54:08.894Z,96496.24
2018-09-13T09:56:37.216Z,96494.39
2018-09-13T09:59:05.648Z,96489.84
2018-09-13T10:01:35.461Z,96491.53
2018-09-13T10:04:04.112Z,96492.69
2018-09-13T10:06:32.568Z,96491.69
2018-09-13T10:09:00.962Z,96484.47
2018-09-13T10:11:29.276Z,96478.56
2018-09-13T10:13:57.744Z,96479.43
2018-09-13T10:16:31.328Z,96479.45
2018-09-13T10:20:04.973Z,96477.31
2018-09-13T10:22:38.756Z,96476.77
2018-09-13T10:25:13.483Z,96473.51
2018-09-13T10:27:47.195Z,96472.97
2018-09-13T10:30:20.840Z,96477.00
2018-09-13T10:32:54.596Z,96476.48
2018-09-13T10:35:28.315Z,96472.41
2018-09-13T10:38:02.072Z,96469.20
2018-09-13T10:40:35.931Z,96469.78
2018-09-13T10:43:09.517Z,96466.58
2018-09-13T10:45:43.284Z,96461.70
2018-09-13T10:48:16.792Z,96457.34
2018-09-13T10:50:50.774Z,96459.52
2018-09-13T10:53:22.608Z,96451.91
2018-09-13T10:55:51.020Z,96454.88
2018-09-13T10:58:19.600Z,96452.41
2018-09-13T11:00:48.098Z,96451.29
2018-09-13T11:03:16.528Z,96444.48
2018-09-13T11:05:45.050Z,96448.79
2018-09-13T11:08:13.380Z,96446.31
2018-09-13T11:10:41.984Z,96433.82
2018-09-13T11:13:14.488Z,96435.19
2018-09-13T11:15:42.816Z,96435.44
2018-09-13T11:18:11.176Z,96432.97
2018-09-13T11:20:39.608Z,96431.05
2018-09-13T11:23:08.890Z,96428.00
2018-09-13T11:25:37.301Z,96432.05
2018-09-13T11:28:05.927Z,96427.12
2018-09-13T11:30:34.326Z,96425.25
2018-09-13T11:33:02.696Z,96417.40
2018-09-13T11:35:31.126Z,96414.68
2018-09-13T11:37:59.464Z,96416.02
2018-09-13T11:40:28.028Z,96412.47
2018-09-13T11:42:56.508Z,96417.08
2018-09-13T11:45:24.934Z,96414.64
2018-09-13T11:47:53.371Z,96414.84
2018-09-13T11:50:21.808Z,96412.41
2018-09-13T11:52:50.154Z,96399.97
2018-09-13T11:55:18.613Z,96406.75
2018-09-13T11:57:47.051Z,96407.03
2018-09-13T12:00:15.563Z,96403.20
2018-09-13T12:02:43.949Z,96399.92
2018-09-13T12:05:12.438Z,96397.73
2018-09-13T12:07:40.765Z,96399.09
2018-09-13T12:10:09.095Z,96392.82
2018-09-13T12:12:37.677Z,96399.35
2018-09-13T12:15:07.276Z,96388.99
2018-09-13T12:17:35.646Z,96388.97
2018-09-13T12:20:04.115Z,96391.36
2018-09-13T12:22:32.643Z,96386.42
2018-09-13T12:25:01.005Z,96386.70
2018-09-13T12:27:29.720Z,96390.22
2018-09-13T12:29:57.984Z,96372.86
2018-09-13T12:32:26.591Z,96382.58
2018-09-13T12:34:54.943Z,96370.55
2018-09-13T12:37:23.389Z,96366.41
2018-09-13T12:39:51.881Z,96357.33
2018-09-13T12:42:20.477Z,96348.91
2018-09-13T12:44:48.818Z,96354.91
2018-09-13T12:47:17.318Z,96353.55
2018-09-13T12:49:45.765Z,96340.77
2018-09-13T12:52:14.351Z,96344.72
2018-09-13T12:54:43.023Z,96345.48
2018-09-13T12:57:11.547Z,96336.98
2018-09-13T12:59:40.099Z,96343.36
2018-09-13T13:02:08.519Z,96344.13
2018-09-13T13:04:37.197Z,96333.22
2018-09-13T13:07:05.529Z,96338.25
2018-09-13T13:09:34.075Z,96335.25
2018-09-13T13:12:02.487Z,96335.01
2018-09-13T13:14:30.968Z,96328.52
2018-09-13T13:16:59.402Z,96329.88
2018-09-13T13:19:27.902Z,96325.27
2018-09-13T13:21:56.265Z,96319.27
2018-09-13T13:24:24.633Z,96314.56
2018-09-13T13:26:53.110Z,96309.55
2018-09-13T13:29:21.653Z,96310.30
2018-09-13T13:31:50.071Z,96305.68
2018-09-13T13:34:18.475Z,96306.52
2018-09-13T13:36:46.815Z,96296.70
2018-09-13T13:39:15.320Z,96296.14
2018-09-13T13:41:44.869Z,96294.73
2018-09-13T13:44:13.216Z,96298.53
2018-09-13T13:46:41.669Z,96293.88
2018-09-13T13:49:10.231Z,96298.42
2018-09-13T13:51:38.649Z,96296.21
2018-09-13T13:54:07.017Z,96292.13
2018-09-13T13:56:35.436Z,96289.34
2018-09-13T13:59:03.873Z,96289.44
2018-09-13T14:01:32.187Z,96288.65
2018-09-13T14:04:00.674Z,96290.59
2018-09-13T14:06:29.014Z,96281.84
2018-09-13T14:08:57.349Z,96286.73
2018-09-13T14:11:25.799Z,96287.28
2018-09-13T14:13:54.205Z,96286.67
2018-09-13T14:16:22.690Z,96274.95
2018-09-13T14:18:51.152Z,96277.12
2018-09-13T14:21:19.653Z,96272.00
2018-09-13T14:23:48.022Z,96271.15
2018-09-13T14:26:16.640Z,96265.97
2018-09-13T14:28:44.982Z,96265.92
2018-09-13T14:31:13.427Z,96260.18
2018-09-13T14:33:42.283Z,96256.05
2018-09-13T14:36:10.627Z,96247.58
2018-09-13T14:38:39.070Z,96251.55
2018-09-13T14:41:07.552Z,96248.48
2018-09-13T14:43:36.011Z,96246.05
2018-09-13T14:46:04.513Z,96244.11
2018-09-13T14:48:32.808Z,96240.53
2018-09-13T14:51:01.204Z,96243.08
2018-09-13T14:53:29.547Z,96243.72
2018-09-13T14:55:57.972Z,96238.38
2018-09-13T14:58:26.396Z,96240.59
2018-09-13T15:00:54.772Z,96241.79
2018-09-13T15:03:23.201Z,96247.30
2018-09-13T15:05:51.643Z,96248.71
2018-09-13T15:08:20.131Z,96252.71
2018-09-13T15:10:48.691Z,96253.76
2018-09-13T15:13:17.080Z,96260.52
2018-09-13T15:15:45.421Z,96253.42
2018-09-13T15:18:13.885Z,96257.79
2018-09-13T15:20:42.370Z,96259.67
2018-09-13T15:23:10.723Z,96261.94
2018-09-13T15:25:39.214Z,96258.50
2018-09-13T15:28:07.650Z,96266.45
2018-09-13T15:30:36.237Z,96262.95
2018-09-13T15:33:06.146Z,96260.84
2018-09-13T15:35:34.521Z,96255.49
2018-09-13T15:38:02.852Z,96261.31
2018-09-13T15:40:31.252Z,96261.17
2018-09-13T15:42:59.655Z,96260.23
2018-09-13T15:45:28.037Z,96263.16
2018-09-13T15:47:56.608Z,96267.91
2018-09-13T15:50:25.084Z,96266.91
2018-09-13T15:52:53.615Z,96263.20
2018-09-13T15:55:22.064Z,96268.72
2018-09-13T15:57:51.288Z,96266.89
2018-09-13T16:00:19.799Z,96263.73
2018-09-13T16:02:48.323Z,96269.25
2018-09-13T16:05:16.782Z,96266.59
2018-09-13T16:07:45.464Z,96267.70
2018-09-13T16:10:13.913Z,96269.36
2018-09-13T16:12:42.376Z,96261.47
2018-09-13T16:15:10.882Z,96263.93
2018-09-13T16:17:39.260Z,96265.87
2018-09-13T16:20:07.756Z,96257.73
2018-09-13T16:22:36.332Z,96270.02
2018-09-13T16:25:04.741Z,96263.48
2018-09-13T16:27:33.144Z,96262.98
2018-09-13T16:30:01.712Z,96265.99
2018-09-13T16:32:30.248Z,96263.84
2018-09-13T16:34:59.664Z,96266.05
2018-09-13T16:37:33.572Z,96270.97
2018-09-13T16:40:07.601Z,96264.48
2018-09-13T16:42:43.114Z,96268.57
2018-09-13T16:45:12.056Z,96271.28
2018-09-13T16:47:45.976Z,96265.05
2018-09-13T16:50:14.413Z,96262.88
2018-09-13T16:52:42.817Z,96264.82
2018-09-13T16:55:11.309Z,96270.51
2018-09-13T16:57:39.686Z,96268.91
2018-09-13T17:00:08.203Z,96270.26
2018-09-13T17:02:36.601Z,96275.42
2018-09-13T17:05:05.043Z,96274.36
2018-09-13T17:07:33.521Z,96275.20
2018-09-13T17:10:01.985Z,96274.93
2018-09-13T17:12:30.421Z,96280.37
2018-09-13T17:14:58.885Z,96274.37
2018-09-13T17:17:33.967Z,96280.64
2018-09-13T17:20:02.367Z,96282.50
2018-09-13T17:22:30.738Z,96278.19
2018-09-13T17:24:59.410Z,96286.58
2018-09-13T17:27:27.731Z,96280.09
2018-09-13T17:29:56.413Z,96276.81
2018-09-13T17:32:24.827Z,96283.61
2018-09-13T17:34:53.237Z,96285.50
2018-09-13T17:37:21.637Z,96287.38
2018-09-13T17:39:50.203Z,96286.58
2018-09-13T17:42:18.657Z,96286.84
2018-09-13T17:44:47.105Z,96287.11
2018-09-13T17:47:15.747Z,96287.38
2018-09-13T17:49:44.165Z,96288.45
2018-09-13T17:52:12.513Z,96290.66
2018-09-13T17:54:40.935Z,96293.88
2018-09-13T17:57:09.473Z,96299.59
2018-09-13T17:59:37.855Z,96303.64
2018-09-13T18:02:06.868Z,96304.19
2018-09-13T18:04:35.324Z,96305.81
2018-09-13T18:07:05.096Z,96304.70
2018-09-13T18:09:33.476Z,96319.53
2018-09-13T18:12:01.860Z,96321.42
2018-09-13T18:14:30.181Z,96319.45
2018-09-13T18:16:58.744Z,96332.16
2018-09-13T18:19:29.280Z,96332.89
2018-09-13T18:21:57.806Z,96340.72
2018-09-13T18:24:26.456Z,96340.72
2018-09-13T18:26:54.772Z,96345.00
2018-09-13T18:29:23.305Z,96348.72
2018-09-13T18:31:51.761Z,96350.56
2018-09-13T18:34:20.225Z,96359.44
2018-09-13T18:36:48.661Z,96354.46
2018-09-13T18:39:19.497Z,96354.63
2018-09-13T18:41:48.596Z,96365.39
2018-09-13T18:44:17.059Z,96359.57
2018-09-13T18:46:45.759Z,96361.17
2018-09-13T18:49:14.131Z,96360.69
2018-09-13T18:51:44.188Z,96357.44
2018-09-13T18:54:13.647Z,96364.54
2018-09-13T18:56:42.084Z,96370.07
2018-09-13T18:59:10.575Z,96363.98
2018-09-13T19:01:39.043Z,96373.13
2018-09-13T19:04:07.686Z,96379.48
2018-09-13T19:06:36.071Z,96383.93
2018-09-13T19:09:06.885Z,96391.70
2018-09-13T19:11:35.341Z,96392.94
2018-09-13T19:14:03.970Z,96394.29
2018-09-13T19:16:32.853Z,96404.08
2018-09-13T19:19:01.349Z,96410.20
2018-09-13T19:21:29.787Z,96405.69
2018-09-13T19:23:58.444Z,96416.05
2018-09-13T19:26:26.911Z,96412.61
2018-09-13T19:28:55.540Z,96416.23
2018-09-13T19:31:23.910Z,96413.95
2018-09-13T19:33:52.467Z,96424.17
2018-09-13T19:36:22.145Z,96420.90
2018-09-13T19:38:50.739Z,96432.13
2018-09-13T19:41:19.729Z,96434.70
2018-09-13T19:43:49.734Z,96442.99
2018-09-13T19:46:18.244Z,96450.27
2018-09-13T19:48:48.729Z,96449.73
2018-09-13T19:51:17.145Z,96448.63
2018-09-13T19:53:46.059Z,96450.03
2018-09-13T19:56:14.545Z,96446.84
2018-09-13T19:58:42.973Z,96452.43
2018-09-13T20:01:14.266Z,96445.28
2018-09-13T20:03:43.417Z,96447.53
2018-09-13T20:06:12.786Z,96446.49
2018-09-13T20:08:41.214Z,96447.41
2018-09-13T20:11:09.643Z,96448.48
2018-09-13T20:13:38.040Z,96445.28
2018-09-13T20:16:06.685Z,96442.72
2018-09-13T20:18:36.099Z,96446.59
2018-09-13T20:21:04.500Z,96446.26
2018-09-13T20:23:32.927Z,96449.09
2018-09-13T20:26:01.376Z,96455.18
2018-09-13T20:28:29.749Z,96457.61
2018-09-13T20:30:58.167Z,96461.62
2018-09-13T20:33:33.358Z,96465.51
2018-09-13T20:36:02.144Z,96461.36
2018-09-13T20:38:31.254Z,96468.69
2018-09-13T20:40:59.785Z,96466.52
2018-09-13T20:43:28.267Z,96467.57
2018-09-13T20:45:56.891Z,96468.23
2018-09-13T20:48:26.508Z,96463.95
2018-09-13T20:50:55.053Z,96466.08
2018-09-13T20:53:23.399Z,96467.97
2018-09-13T20:55:51.897Z,96464.27
2018-09-13T20:58:20.361Z,96461.84
2018-09-13T21:00:48.958Z,96458.70
2018-09-13T21:03:17.277Z,96456.30
2018-09-13T21:05:45.647Z,96460.69
2018-09-13T21:08:15.293Z,96463.75
2018-09-13T21:10:44.037Z,96466.98
2018-09-13T21:13:12.469Z,96469.98
2018-09-13T21:15:41.023Z,96463.08
2018-09-13T21:18:09.385Z,96460.39
2018-09-13T21:20:37.737Z,96469.39
2018-09-13T21:23:06.525Z,96465.92
2018-09-13T21:25:35.018Z,96470.30
2018-09-13T21:28:03.369Z,96465.24
2018-09-13T21:30:31.903Z,96468.28
2018-09-13T21:33:00.393Z,96466.59
2018-09-13T21:35:29.377Z,96459.14
2018-09-13T21:37:57.742Z,96457.72
2018-09-13T21:40:26.877Z,96456.37
2018-09-13T21:42:55.407Z,96452.30
2018-09-13T21:45:23.719Z,96449.36
2018-09-13T21:47:52.068Z,96444.54
2018-09-13T21:50:20.519Z,96453.11
2018-09-13T21:52:48.827Z,96455.92
2018-09-13T21:55:17.147Z,96455.00
2018-09-13T21:57:45.559Z,96454.58
2018-09-13T22:00:13.947Z,96455.08
2018-09-13T22:02:42.653Z,96455.70
2018-09-13T22:05:11.056Z,96457.23
2018-09-13T22:07:40.193Z,96452.19
2018-09-13T22:10:08.652Z,96449.68
2018-09-13T22:12:37.106Z,96446.64
2018-09-13T22:15:05.492Z,96440.72
2018-09-13T22:17:33.852Z,96444.98
2018-09-13T22:20:02.343Z,96448.81
2018-09-13T22:22:30.676Z,96450.00
2018-09-13T22:24:59.664Z,96449.24
2018-09-13T22:27:28.155Z,96449.85
2018-09-13T22:29:56.552Z,96442.36
2018-09-13T22:32:25.092Z,96448.78
2018-09-13T22:34:53.554Z,96445.07
2018-09-13T22:37:22.057Z,96442.56
2018-09-13T22:39:50.540Z,96443.72
2018-09-13T22:42:19.048Z,96435.35
2018-09-13T22:44:47.365Z,96428.83
2018-09-13T22:47:15.720Z,96441.11
2018-09-13T22:49:44.220Z,96435.91
2018-09-13T22:52:12.593Z,96441.09
2018-09-13T22:54:41.316Z,96439.70
2018-09-13T22:57:09.748Z,96437.23
2018-09-13T22:59:38.109Z,96444.55
2018-09-13T23:02:06.676Z,96443.20
2018-09-13T23:04:35.047Z,96441.05
2018-09-13T23:07:03.408Z,96446.35
2018-09-13T23:09:31.853Z,96452.38
2018-09-13T23:12:00.264Z,96452.56
2018-09-13T23:14:28.596Z,96452.89
2018-09-13T23:16:56.950Z,96450.03
2018-09-13T23:19:25.515Z,96448.59
2018-09-13T23:21:53.940Z,96442.13
2018-09-13T23:24:22.533Z,96443.94
2018-09-13T23:26:51.260Z,96444.78
2018-09-13T23:29:19.720Z,96442.31
2018-09-13T23:31:48.068Z,96438.17
2018-09-13T23:34:17.938Z,96443.67
2018-09-13T23:36:46.528Z,96440.52
2018-09-13T23:39:15.010Z,96443.72
2018-09-13T23:41:44.340Z,96442.28
2018-09-13T23:44:12.696Z,96449.02
2018-09-13T23:46:41.076Z,96451.32
2018-09-13T23:49:09.598Z,96449.27
2018-09-13T23:51:38.184Z,96450.08
2018-09-13T23:54:06.660Z,96449.75
2018-09-13T23:56:35.219Z,96445.13
2018-09-13T23:59:03.649Z,96448.15
